createdAt,value
2022-08-14T00:02:03.099Z,1.75
2022-08-14T00:04:45.120Z,1.85
2022-08-14T00:07:14.114Z,1.83
2022-08-14T00:09:56.182Z,2.03
2022-08-14T00:12:39.117Z,2.20
2022-08-14T00:15:15.382Z,2.20
2022-08-14T00:17:48.208Z,1.98
2022-08-14T00:20:30.581Z,1.70
2022-08-14T00:23:12.076Z,1.85
2022-08-14T00:25:42.796Z,2.05
2022-08-14T00:28:15.571Z,2.00
2022-08-14T00:30:45.741Z,1.92
2022-08-14T00:33:15.329Z,1.90
2022-08-14T00:36:37.002Z,2.22
2022-08-14T00:38:32.018Z,2.22
2022-08-14T00:41:03.032Z,1.88
2022-08-14T00:43:32.203Z,2.28
2022-08-14T00:46:08.030Z,1.85
2022-08-14T00:48:38.235Z,2.17
2022-08-14T00:51:09.706Z,1.95
2022-08-14T00:53:37.603Z,2.33
2022-08-14T00:56:08.566Z,2.15
2022-08-14T00:58:38.937Z,2.38
2022-08-14T01:01:14.507Z,2.00
2022-08-14T01:03:44.694Z,2.40
2022-08-14T01:06:18.424Z,2.10
2022-08-14T01:08:52.394Z,2.33
2022-08-14T01:11:25.914Z,2.15
2022-08-14T01:14:18.183Z,2.55
2022-08-14T01:16:52.843Z,2.40
2022-08-14T01:19:39.228Z,2.35
2022-08-14T01:22:12.794Z,2.67
2022-08-14T01:24:43.411Z,2.60
2022-08-14T01:27:24.152Z,2.53
2022-08-14T01:30:03.128Z,3.00
2022-08-14T01:32:37.560Z,3.33
2022-08-14T01:35:18.128Z,3.20
2022-08-14T01:37:56.914Z,2.88
2022-08-14T01:40:36.460Z,3.00
2022-08-14T01:43:18.849Z,3.45
2022-08-14T01:45:57.972Z,3.35
2022-08-14T01:48:37.123Z,3.40
2022-08-14T01:51:19.340Z,3.55
2022-08-14T01:53:54.699Z,3.78
2022-08-14T01:56:37.320Z,3.65
2022-08-14T01:59:09.792Z,3.78
2022-08-14T02:01:38.037Z,3.65
2022-08-14T02:04:40.629Z,3.92
2022-08-14T02:06:56.985Z,4.35
2022-08-14T02:09:24.794Z,4.10
2022-08-14T02:11:54.596Z,4.38
2022-08-14T02:14:31.944Z,4.43
2022-08-14T02:17:00.343Z,4.30
2022-08-14T02:19:31.750Z,4.72
2022-08-14T02:22:02.963Z,4.47
2022-08-14T02:24:38.806Z,4.90
2022-08-14T02:28:25.869Z,4.95
2022-08-14T02:30:01.133Z,4.80
2022-08-14T02:32:36.689Z,4.63
2022-08-14T02:35:13.917Z,4.47
2022-08-14T02:37:47.534Z,4.57
2022-08-14T02:40:20.973Z,4.75
2022-08-14T02:43:00.389Z,4.47
2022-08-14T02:45:38.234Z,4.20
2022-08-14T02:49:03.906Z,4.40
2022-08-14T02:51:01.474Z,4.20
2022-08-14T02:53:31.295Z,3.90
2022-08-14T02:56:02.552Z,4.22
2022-08-14T02:58:32.851Z,4.32
2022-08-14T03:01:01.614Z,4.05
2022-08-14T03:03:31.801Z,4.60
2022-08-14T03:06:00.405Z,4.82
2022-08-14T03:08:31.845Z,4.75
2022-08-14T03:11:07.617Z,4.80
2022-08-14T03:13:35.962Z,4.80
2022-08-14T03:16:05.815Z,5.28
2022-08-14T03:18:42.531Z,5.43
2022-08-14T03:21:15.185Z,4.85
2022-08-14T03:23:44.041Z,4.57
2022-08-14T03:26:18.228Z,4.70
2022-08-14T03:28:57.362Z,4.57
2022-08-14T03:31:29.399Z,4.10
2022-08-14T03:33:59.833Z,4.80
2022-08-14T03:37:39.353Z,4.18
2022-08-14T03:39:21.985Z,4.70
2022-08-14T03:41:51.010Z,4.35
2022-08-14T03:45:25.297Z,4.57
2022-08-14T03:47:05.073Z,4.23
2022-08-14T03:49:32.276Z,4.18
2022-08-14T03:52:04.944Z,4.28
2022-08-14T03:54:52.380Z,3.40
2022-08-14T03:57:20.346Z,3.50
2022-08-14T03:59:51.048Z,3.55
2022-08-14T04:02:32.901Z,3.70
2022-08-14T04:05:12.291Z,3.30
2022-08-14T04:07:49.377Z,3.50
2022-08-14T04:10:17.679Z,3.10
2022-08-14T04:13:03.509Z,3.22
2022-08-14T04:15:31.118Z,3.03
2022-08-14T04:17:58.945Z,3.08
2022-08-14T04:20:28.481Z,3.10
2022-08-14T04:22:55.705Z,2.97
2022-08-14T04:25:24.417Z,2.80
2022-08-14T04:28:03.179Z,2.70
2022-08-14T04:30:33.121Z,3.20
2022-08-14T04:33:06.246Z,2.85
2022-08-14T04:35:56.540Z,2.50
2022-08-14T04:38:42.748Z,3.03
2022-08-14T04:41:30.232Z,2.80
2022-08-14T04:43:57.761Z,2.78
2022-08-14T04:46:55.528Z,3.08
2022-08-14T04:49:15.030Z,2.83
2022-08-14T04:51:55.436Z,2.90
2022-08-14T04:54:24.633Z,2.67
2022-08-14T04:56:51.628Z,2.67
2022-08-14T04:59:22.373Z,2.90
2022-08-14T05:01:52.847Z,3.00
2022-08-14T05:04:24.916Z,2.95
2022-08-14T05:06:54.236Z,3.10
2022-08-14T05:09:28.827Z,2.97
2022-08-14T05:12:59.316Z,2.90
2022-08-14T05:14:54.609Z,3.08
2022-08-14T05:17:32.176Z,3.22
2022-08-14T05:21:04.235Z,3.40
2022-08-14T05:22:59.810Z,2.78
2022-08-14T05:25:30.972Z,3.03
2022-08-14T05:28:28.551Z,2.60
2022-08-14T05:30:58.155Z,2.80
2022-08-14T05:33:28.509Z,2.80
2022-08-14T05:36:02.826Z,2.95
2022-08-14T05:38:35.211Z,3.10
2022-08-14T05:41:06.563Z,3.20
2022-08-14T05:43:41.626Z,2.80
2022-08-14T05:46:15.333Z,3.30
2022-08-14T05:48:43.151Z,2.72
2022-08-14T05:51:11.033Z,2.92
2022-08-14T05:53:42.405Z,3.58
2022-08-14T05:56:09.746Z,2.53
2022-08-14T05:58:41.402Z,2.35
2022-08-14T06:01:09.662Z,2.78
2022-08-14T06:03:37.243Z,2.83
2022-08-14T06:06:07.515Z,2.60
2022-08-14T06:08:36.334Z,3.13
2022-08-14T06:11:09.311Z,2.40
2022-08-14T06:13:45.743Z,2.20
2022-08-14T06:16:17.919Z,2.50
2022-08-14T06:18:53.047Z,2.05
2022-08-14T06:21:24.050Z,2.05
2022-08-14T06:23:51.606Z,2.47
2022-08-14T06:26:20.524Z,2.78
2022-08-14T06:28:52.500Z,2.42
2022-08-14T06:31:21.101Z,2.30
2022-08-14T06:35:10.205Z,2.53
2022-08-14T06:36:38.514Z,2.10
2022-08-14T06:39:08.217Z,2.17
2022-08-14T06:41:56.689Z,2.35
2022-08-14T06:44:32.348Z,2.10
2022-08-14T06:47:01.458Z,2.30
2022-08-14T06:49:30.161Z,2.20
2022-08-14T06:51:57.429Z,2.20
2022-08-14T06:54:31.666Z,1.98
2022-08-14T06:56:58.666Z,2.10
2022-08-14T06:59:25.512Z,1.98
2022-08-14T07:02:13.673Z,2.53
2022-08-14T07:05:05.170Z,2.15
2022-08-14T07:07:39.920Z,2.00
2022-08-14T07:10:16.703Z,1.70
2022-08-14T07:13:02.078Z,2.35
2022-08-14T07:15:32.323Z,1.80
2022-08-14T07:18:00.423Z,2.03
2022-08-14T07:20:30.865Z,1.88
2022-08-14T07:23:07.788Z,1.90
2022-08-14T07:25:38.008Z,2.10
2022-08-14T07:28:43.452Z,1.90
2022-08-14T07:31:12.507Z,1.92
2022-08-14T07:33:46.675Z,1.80
2022-08-14T07:36:26.476Z,1.88
2022-08-14T07:38:56.667Z,2.60
2022-08-14T07:41:23.873Z,1.85
2022-08-14T07:43:55.627Z,1.70
2022-08-14T07:46:28.622Z,1.90
2022-08-14T07:48:57.310Z,1.95
2022-08-14T07:51:24.642Z,1.80
2022-08-14T07:53:57.249Z,2.00
2022-08-14T07:56:47.673Z,1.50
2022-08-14T07:59:18.106Z,2.00
2022-08-14T08:01:48.252Z,2.10
2022-08-14T08:04:25.243Z,1.85
2022-08-14T08:06:54.941Z,2.00
2022-08-14T08:09:31.799Z,2.22
2022-08-14T08:12:04.962Z,2.08
2022-08-14T08:14:55.435Z,2.20
2022-08-14T08:17:24.852Z,1.85
2022-08-14T08:19:52.293Z,2.28
2022-08-14T08:22:22.012Z,2.70
2022-08-14T08:24:50.571Z,2.08
2022-08-14T08:27:21.477Z,2.33
2022-08-14T08:29:50.791Z,2.63
2022-08-14T08:32:18.488Z,2.15
2022-08-14T08:34:46.946Z,2.33
2022-08-14T08:37:15.289Z,2.30
2022-08-14T08:40:03.229Z,6.45
2022-08-14T08:42:38.864Z,2.08
2022-08-14T08:45:17.428Z,2.28
2022-08-14T08:47:45.378Z,2.50
2022-08-14T08:53:10.799Z,1.88
2022-08-14T08:55:44.026Z,2.63
2022-08-14T08:58:25.392Z,2.10
2022-08-14T09:00:58.629Z,1.90
2022-08-14T09:03:28.103Z,1.80
2022-08-14T09:07:00.661Z,2.10
2022-08-14T09:08:52.738Z,2.10
2022-08-14T09:11:21.431Z,2.08
2022-08-14T09:13:51.447Z,2.20
2022-08-14T09:16:23.625Z,1.80
2022-08-14T09:18:53.020Z,2.10
2022-08-14T09:21:21.251Z,1.80
2022-08-14T09:24:26.709Z,2.10
2022-08-14T09:26:43.988Z,1.90
2022-08-14T09:29:17.240Z,1.90
2022-08-14T09:31:53.011Z,1.85
2022-08-14T09:34:27.984Z,1.92
2022-08-14T09:37:40.065Z,2.05
2022-08-14T09:40:47.725Z,2.20
2022-08-14T09:43:46.868Z,2.35
2022-08-14T09:46:16.942Z,2.10
2022-08-14T09:49:05.008Z,2.00
2022-08-14T09:51:44.006Z,2.03
2022-08-14T09:54:22.321Z,1.60
2022-08-14T09:56:57.454Z,2.20
2022-08-14T09:59:28.353Z,2.10
2022-08-14T10:01:59.728Z,1.88
2022-08-14T10:04:34.437Z,1.70
2022-08-14T10:07:05.540Z,1.95
2022-08-14T10:09:33.523Z,2.10
2022-08-14T10:12:04.816Z,1.85
2022-08-14T10:14:36.917Z,2.10
2022-08-14T10:17:08.479Z,1.73
2022-08-14T10:19:46.916Z,1.80
2022-08-14T10:23:15.284Z,1.90
2022-08-14T10:25:15.375Z,1.90
2022-08-14T10:27:46.725Z,1.98
2022-08-14T10:30:22.573Z,1.80
2022-08-14T10:32:53.604Z,1.85
2022-08-14T10:35:31.056Z,2.15
2022-08-14T10:38:01.486Z,1.95
2022-08-14T10:40:38.265Z,1.38
2022-08-14T10:43:19.120Z,1.50
2022-08-14T10:46:03.575Z,1.60
2022-08-14T10:49:04.276Z,1.70
2022-08-14T10:51:39.793Z,1.60
2022-08-14T10:54:35.046Z,1.80
2022-08-14T10:56:59.549Z,1.48
2022-08-14T10:59:30.960Z,1.70
2022-08-14T11:02:02.546Z,1.38
2022-08-14T11:04:30.846Z,1.40
2022-08-14T11:06:58.559Z,1.50
2022-08-14T11:09:26.073Z,1.60
2022-08-14T11:12:35.131Z,1.60
2022-08-14T11:15:02.485Z,1.50
2022-08-14T11:17:32.764Z,1.40
2022-08-14T11:20:01.417Z,1.45
2022-08-14T11:22:55.994Z,3.17
2022-08-14T11:25:23.604Z,1.67
2022-08-14T11:27:53.441Z,1.35
2022-08-14T11:30:50.710Z,1.42
2022-08-14T11:33:13.040Z,1.55
2022-08-14T11:35:44.302Z,1.48
2022-08-14T11:38:16.994Z,1.70
2022-08-14T11:40:46.980Z,2.10
2022-08-14T11:43:16.373Z,2.03
2022-08-14T11:45:48.324Z,1.83
2022-08-14T11:49:02.469Z,1.85
2022-08-14T11:51:24.197Z,1.80
2022-08-14T11:53:57.530Z,1.38
2022-08-14T11:56:29.775Z,1.55
2022-08-14T11:58:57.677Z,1.80
2022-08-14T12:01:31.237Z,2.05
2022-08-14T12:04:32.051Z,1.73
2022-08-14T12:07:01.733Z,1.67
2022-08-14T12:09:37.373Z,1.80
2022-08-14T12:12:35.065Z,1.55
2022-08-14T12:15:06.928Z,2.17
2022-08-14T12:17:52.027Z,1.60
2022-08-14T12:20:30.200Z,1.45
2022-08-14T12:23:01.463Z,1.60
2022-08-14T12:25:29.352Z,1.30
2022-08-14T12:27:59.175Z,1.60
2022-08-14T12:30:37.657Z,1.50
2022-08-14T12:33:31.120Z,1.30
2022-08-14T12:36:04.116Z,1.42
2022-08-14T12:38:43.734Z,1.50
2022-08-14T12:41:21.137Z,1.30
2022-08-14T12:43:53.618Z,1.55
2022-08-14T12:46:28.615Z,1.67
2022-08-14T12:48:59.162Z,1.35
2022-08-14T12:51:28.736Z,1.40
2022-08-14T12:53:59.626Z,1.50
2022-08-14T12:56:32.950Z,1.70
2022-08-14T12:59:02.420Z,1.50
2022-08-14T13:02:00.337Z,1.40
2022-08-14T13:04:20.598Z,1.50
2022-08-14T13:06:50.621Z,1.70
2022-08-14T13:09:20.023Z,1.27
2022-08-14T13:11:59.180Z,1.20
2022-08-14T13:14:49.388Z,1.33
2022-08-14T13:17:17.155Z,1.70
2022-08-14T13:19:46.180Z,1.40
2022-08-14T13:22:29.042Z,1.85
2022-08-14T13:25:02.920Z,1.30
2022-08-14T13:27:39.500Z,1.60
2022-08-14T13:30:21.402Z,1.52
2022-08-14T13:32:53.259Z,1.30
2022-08-14T13:35:20.696Z,1.40
2022-08-14T13:37:52.179Z,1.10
2022-08-14T13:40:26.655Z,1.65
2022-08-14T13:42:56.686Z,1.40
2022-08-14T13:45:33.944Z,1.35
2022-08-14T13:48:28.535Z,1.30
2022-08-14T13:51:07.999Z,1.20
2022-08-14T13:54:07.099Z,1.30
2022-08-14T13:56:37.822Z,1.23
2022-08-14T13:59:06.470Z,1.20
2022-08-14T14:01:43.699Z,1.40
2022-08-14T14:04:19.125Z,1.48
2022-08-14T14:06:48.673Z,1.38
2022-08-14T14:09:21.395Z,1.63
2022-08-14T14:11:52.905Z,1.75
2022-08-14T14:14:44.742Z,1.40
2022-08-14T14:17:12.568Z,1.30
2022-08-14T14:19:43.276Z,1.95
2022-08-14T14:22:13.415Z,1.40
2022-08-14T14:25:00.628Z,1.42
2022-08-14T14:27:44.221Z,1.50
2022-08-14T14:30:46.986Z,1.40
2022-08-14T14:33:05.048Z,1.50
2022-08-14T14:35:38.522Z,1.30
2022-08-14T14:38:09.153Z,1.50
2022-08-14T14:40:50.494Z,1.80
2022-08-14T14:43:22.763Z,1.40
2022-08-14T14:45:52.842Z,1.77
2022-08-14T14:48:20.440Z,1.90
2022-08-14T14:50:53.116Z,2.05
2022-08-14T14:53:21.402Z,1.70
2022-08-14T14:56:47.401Z,1.40
2022-08-14T14:58:37.515Z,1.50
2022-08-14T15:01:08.711Z,1.42
2022-08-14T15:03:39.801Z,1.77
2022-08-14T15:06:08.798Z,3.28
2022-08-14T15:08:56.400Z,2.03
2022-08-14T15:11:26.576Z,1.60
2022-08-14T15:13:57.891Z,1.88
2022-08-14T15:16:24.993Z,1.55
2022-08-14T15:18:52.910Z,1.60
2022-08-14T15:21:20.143Z,1.60
2022-08-14T15:23:48.110Z,1.75
2022-08-14T15:26:24.503Z,1.60
2022-08-14T15:29:05.931Z,1.50
2022-08-14T15:31:36.132Z,1.83
2022-08-14T15:34:45.497Z,1.13
2022-08-14T15:37:02.493Z,1.48
2022-08-14T15:39:35.339Z,1.75
2022-08-14T15:42:14.547Z,1.30
2022-08-14T15:44:57.998Z,1.30
2022-08-14T15:47:28.252Z,1.33
2022-08-14T15:50:01.209Z,1.50
2022-08-14T15:52:37.158Z,1.52
2022-08-14T15:55:07.788Z,1.40
2022-08-14T15:57:35.691Z,1.00
2022-08-14T16:00:43.717Z,1.20
2022-08-14T16:03:15.861Z,1.10
2022-08-14T16:05:46.045Z,1.30
2022-08-14T16:08:24.317Z,1.50
2022-08-14T16:10:58.260Z,1.30
2022-08-14T16:13:41.372Z,1.40
2022-08-14T16:16:35.017Z,1.30
2022-08-14T16:19:07.223Z,1.10
2022-08-14T16:21:39.544Z,1.40
2022-08-14T16:24:06.723Z,1.40
2022-08-14T16:26:34.861Z,1.30
2022-08-14T16:29:04.833Z,1.27
2022-08-14T16:31:35.653Z,1.20
2022-08-14T16:34:45.470Z,1.00
2022-08-14T16:36:54.465Z,1.10
2022-08-14T16:39:22.954Z,1.30
2022-08-14T16:41:58.776Z,1.20
2022-08-14T16:44:38.080Z,1.20
2022-08-14T16:47:13.206Z,1.20
2022-08-14T16:50:04.829Z,1.40
2022-08-14T16:52:44.418Z,1.25
2022-08-14T16:55:17.917Z,1.20
2022-08-14T16:57:50.321Z,1.08
2022-08-14T17:00:43.626Z,1.20
2022-08-14T17:03:12.582Z,1.10
2022-08-14T17:05:43.067Z,1.40
2022-08-14T17:08:33.251Z,1.30
2022-08-14T17:11:10.919Z,1.38
2022-08-14T17:13:58.556Z,1.48
2022-08-14T17:16:37.407Z,1.33
2022-08-14T17:19:09.707Z,1.55
2022-08-14T17:21:41.964Z,1.50
2022-08-14T17:24:57.175Z,1.25
2022-08-14T17:27:03.749Z,1.20
2022-08-14T17:29:33.728Z,1.30
2022-08-14T17:32:21.862Z,1.60
2022-08-14T17:34:51.103Z,1.50
2022-08-14T17:37:24.207Z,1.67
2022-08-14T17:40:17.645Z,1.60
2022-08-14T17:45:41.100Z,1.75
2022-08-14T17:49:15.673Z,1.90
2022-08-14T17:51:14.545Z,1.75
2022-08-14T17:53:53.430Z,1.50
2022-08-14T17:56:30.931Z,1.88
2022-08-14T17:59:05.306Z,1.60
2022-08-14T18:01:37.833Z,1.75
2022-08-14T18:04:28.517Z,2.03
2022-08-14T18:07:08.661Z,1.85
2022-08-14T18:09:56.134Z,1.65
2022-08-14T18:12:31.886Z,1.85
2022-08-14T18:15:12.253Z,1.90
2022-08-14T18:17:52.883Z,2.10
2022-08-14T18:21:41.869Z,2.05
2022-08-14T18:23:12.983Z,2.17
2022-08-14T18:25:59.952Z,2.00
2022-08-14T18:28:50.828Z,2.20
2022-08-14T18:31:22.789Z,2.28
2022-08-14T18:34:07.337Z,2.30
2022-08-14T18:36:56.715Z,2.10
2022-08-14T18:39:28.243Z,2.05
2022-08-14T18:42:23.548Z,1.90
2022-08-14T18:44:50.936Z,1.80
2022-08-14T18:47:21.807Z,1.90
2022-08-14T18:49:57.971Z,1.58
2022-08-14T18:52:52.808Z,1.70
2022-08-14T18:55:20.793Z,1.70
2022-08-14T18:57:58.211Z,1.55
2022-08-14T19:00:32.246Z,1.90
2022-08-14T19:03:05.175Z,1.65
2022-08-14T19:05:47.817Z,1.70
2022-08-14T19:08:18.853Z,1.73
2022-08-14T19:11:04.144Z,1.85
2022-08-14T19:13:48.912Z,2.03
2022-08-14T19:16:23.425Z,1.70
2022-08-14T19:18:53.763Z,1.70
2022-08-14T19:21:52.260Z,1.80
2022-08-14T19:24:44.199Z,1.65
2022-08-14T19:27:19.519Z,1.80
2022-08-14T19:29:51.282Z,2.17
2022-08-14T19:32:39.679Z,1.95
2022-08-14T19:35:48.819Z,1.83
2022-08-14T19:38:47.892Z,1.95
2022-08-14T19:41:17.200Z,2.22
2022-08-14T19:43:55.601Z,1.70
2022-08-14T19:46:39.194Z,1.77
2022-08-14T19:49:23.450Z,1.70
2022-08-14T19:52:04.260Z,1.83
2022-08-14T19:54:46.902Z,1.80
2022-08-14T19:57:21.474Z,2.13
2022-08-14T19:59:59.740Z,2.00
2022-08-14T20:02:30.066Z,2.33
2022-08-14T20:05:05.616Z,2.00
2022-08-14T20:08:00.727Z,2.13
2022-08-14T20:11:03.672Z,1.90
2022-08-14T20:13:29.279Z,2.28
2022-08-14T20:16:02.734Z,2.10
2022-08-14T20:18:49.984Z,2.03
2022-08-14T20:21:18.296Z,2.42
2022-08-14T20:23:47.881Z,2.45
2022-08-14T20:26:31.207Z,2.63
2022-08-14T20:29:04.329Z,2.63
2022-08-14T20:31:36.621Z,2.25
2022-08-14T20:34:24.310Z,2.50
2022-08-14T20:37:02.052Z,2.45
2022-08-14T20:39:34.018Z,2.53
2022-08-14T20:42:38.596Z,2.45
2022-08-14T20:45:21.626Z,2.53
2022-08-14T20:48:01.033Z,3.38
2022-08-14T20:50:30.440Z,3.10
2022-08-14T20:53:00.342Z,2.53
2022-08-14T20:55:41.738Z,2.45
2022-08-14T20:58:43.315Z,3.08
2022-08-14T21:01:32.556Z,2.65
2022-08-14T21:04:02.307Z,2.55
2022-08-14T21:07:22.777Z,2.47
2022-08-14T21:10:05.284Z,2.95
2022-08-14T21:12:32.721Z,3.20
2022-08-14T21:15:01.810Z,2.70
2022-08-14T21:17:30.227Z,3.22
2022-08-14T21:19:57.351Z,3.40
2022-08-14T21:22:25.559Z,2.97
2022-08-14T21:25:02.030Z,2.90
2022-08-14T21:27:37.334Z,2.92
2022-08-14T21:30:08.660Z,2.78
2022-08-14T21:32:50.457Z,3.47
2022-08-14T21:35:25.918Z,2.60
2022-08-14T21:37:53.900Z,3.40
2022-08-14T21:40:40.908Z,2.90
2022-08-14T21:43:18.157Z,2.47
2022-08-14T21:45:53.360Z,3.00
2022-08-14T21:48:26.440Z,3.20
2022-08-14T21:51:53.646Z,3.10
2022-08-14T21:53:58.175Z,2.90
2022-08-14T21:56:39.002Z,2.95
2022-08-14T21:59:17.780Z,3.30
2022-08-14T22:02:01.582Z,3.08
2022-08-14T22:04:39.976Z,2.95
2022-08-14T22:07:12.206Z,3.10
2022-08-14T22:09:42.792Z,3.13
2022-08-14T22:12:47.306Z,2.67
2022-08-14T22:15:01.899Z,3.28
2022-08-14T22:17:32.404Z,2.92
2022-08-14T22:20:02.588Z,2.88
2022-08-14T22:22:32.599Z,2.90
2022-08-14T22:25:01.221Z,2.92
2022-08-14T22:27:32.465Z,3.50
2022-08-14T22:30:00.567Z,2.70
2022-08-14T22:32:56.094Z,3.08
2022-08-14T22:35:15.974Z,2.88
2022-08-14T22:37:44.813Z,2.80
2022-08-14T22:40:48.377Z,2.97
2022-08-14T22:43:08.153Z,3.25
2022-08-14T22:45:37.799Z,3.35
2022-08-14T22:48:11.093Z,3.00
2022-08-14T22:50:51.070Z,3.45
2022-08-14T22:53:21.739Z,3.63
2022-08-14T22:55:52.008Z,3.13
2022-08-14T22:58:30.264Z,3.10
2022-08-14T23:01:01.378Z,2.63
2022-08-14T23:03:34.059Z,3.40
2022-08-14T23:06:02.264Z,3.17
2022-08-14T23:08:59.939Z,3.35
2022-08-14T23:11:16.332Z,3.53
2022-08-14T23:13:46.255Z,3.00
2022-08-14T23:16:20.115Z,3.00
2022-08-14T23:18:53.471Z,3.50
2022-08-14T23:21:24.607Z,2.92
2022-08-14T23:23:54.998Z,3.10
2022-08-14T23:26:47.701Z,3.50
2022-08-14T23:29:12.070Z,3.58
2022-08-14T23:31:40.066Z,3.05
2022-08-14T23:34:20.465Z,2.92
2022-08-14T23:36:54.481Z,3.33
2022-08-14T23:39:30.974Z,3.17
2022-08-14T23:42:07.595Z,3.22
2022-08-14T23:44:37.676Z,3.45
2022-08-14T23:47:11.619Z,3.20
2022-08-14T23:50:01.375Z,2.90
2022-08-14T23:52:55.633Z,3.30
2022-08-14T23:55:29.038Z,3.42
2022-08-14T23:57:58.457Z,3.60
